Time;durP1;ratioP1;P1;durP2;ratioP2;P2;SDS_P1;SDS_P2;PMS_P1;PMS_P2;Temp;Humidity;BMP_temperature;BMP_pressure;BME280_temperature;BME280_humidity;BME280_pressure;Samples;Min_cycle;Max_cycle;Signal;HPM_P1;HPM_P2
2021/12/04 00:00:40;;;;;;;5.27;3.17;;;;;;;3.43;100.00;94202.38;5102830;28;20663;-78
2021/12/04 00:03:12;;;;;;;3.40;3.10;;;;;;;3.22;100.00;94210.09;5104935;28;20234;-78
2021/12/04 00:05:44;;;;;;;4.53;3.10;;;;;;;3.12;100.00;94205.25;5098535;28;20216;-78
2021/12/04 00:08:13;;;;;;;3.80;3.33;;;;;;;3.17;100.00;94208.09;5104201;28;20220;-78
2021/12/04 00:10:41;;;;;;;4.23;3.43;;;;;;;3.11;100.00;94190.06;5103470;28;20215;-78
2021/12/04 00:13:10;;;;;;;4.30;3.30;;;;;;;3.33;100.00;94201.88;5099007;28;20262;-78
2021/12/04 00:15:38;;;;;;;5.60;3.93;;;;;;;3.29;100.00;94190.41;5104497;28;20196;-78
2021/12/04 00:18:06;;;;;;;5.03;3.90;;;;;;;3.31;100.00;94189.25;5096868;28;20244;-78
2021/12/04 00:20:38;;;;;;;4.80;4.00;;;;;;;3.31;100.00;94196.16;5103757;28;20231;-78
2021/12/04 00:23:06;;;;;;;5.40;4.07;;;;;;;3.39;100.00;94201.94;5094553;28;20203;-78
2021/12/04 00:25:34;;;;;;;4.90;4.03;;;;;;;3.51;100.00;94202.25;5105497;28;20289;-79
2021/12/04 00:28:02;;;;;;;4.40;3.77;;;;;;;3.55;100.00;94205.25;5106217;28;20650;-79
2021/12/04 00:30:30;;;;;;;4.13;3.50;;;;;;;3.12;100.00;94150.56;5098681;28;20265;-78
2021/12/04 00:33:02;;;;;;;4.03;3.53;;;;;;;3.36;100.00;94194.63;5101802;28;20269;-77
2021/12/04 00:35:43;;;;;;;9.53;3.93;;;;;;;3.32;100.00;94195.16;5101985;28;20200;-78
2021/12/04 00:49:28;;;;;;;13.13;9.10;;;;;;;3.22;100.00;94192.13;5102799;28;20214;-79
2021/12/04 00:51:58;;;;;;;9.37;6.03;;;;;;;3.27;100.00;94197.50;5107894;28;20620;-79
2021/12/04 00:54:28;;;;;;;7.87;5.37;;;;;;;3.18;100.00;94190.88;5100924;28;20312;-78
2021/12/04 00:56:58;;;;;;;7.60;5.17;;;;;;;3.19;100.00;94203.56;5101988;28;20249;-78
2021/12/04 00:59:26;;;;;;;6.87;4.90;;;;;;;3.31;100.00;94202.09;5096226;28;20647;-78
2021/12/04 01:01:55;;;;;;;5.43;4.40;;;;;;;3.29;100.00;94198.88;5098340;28;20240;-79
2021/12/04 01:04:23;;;;;;;5.33;4.40;;;;;;;3.22;100.00;94189.56;5102299;28;20258;-80
2021/12/04 01:06:53;;;;;;;6.53;4.80;;;;;;;3.19;100.00;94189.91;5104224;28;20237;-79
2021/12/04 01:09:25;;;;;;;7.07;5.07;;;;;;;3.23;100.00;94171.38;5101141;28;20245;-80
2021/12/04 01:11:56;;;;;;;7.07;4.97;;;;;;;3.41;100.00;94164.03;5102675;28;20579;-79
2021/12/04 01:14:27;;;;;;;6.40;4.73;;;;;;;3.54;100.00;94165.91;5102226;28;20277;-79
2021/12/04 01:16:57;;;;;;;6.70;4.80;;;;;;;3.58;100.00;94156.84;5104704;28;20208;-79
2021/12/04 01:19:26;;;;;;;6.87;4.93;;;;;;;3.54;100.00;94157.41;5103840;28;20204;-80
2021/12/04 01:21:55;;;;;;;7.27;5.20;;;;;;;3.43;100.00;94153.59;5104202;28;20867;-80
2021/12/04 01:24:25;;;;;;;8.13;5.10;;;;;;;3.41;100.00;94145.25;5102483;28;20214;-78
2021/12/04 01:26:55;;;;;;;6.97;5.10;;;;;;;3.41;100.00;94152.97;5104586;28;20231;-78
2021/12/04 01:29:24;;;;;;;6.23;4.80;;;;;;;3.26;100.00;94153.03;5103410;28;20191;-80
2021/12/04 01:31:52;;;;;;;8.63;5.67;;;;;;;3.20;100.00;94140.19;5090882;28;20626;-79
2021/12/04 01:34:21;;;;;;;8.27;5.50;;;;;;;3.17;100.00;94138.78;5103011;28;20315;-79
2021/12/04 01:36:49;;;;;;;9.13;6.00;;;;;;;3.14;100.00;94138.34;5098279;28;21528;-80
2021/12/04 01:39:17;;;;;;;8.23;5.60;;;;;;;3.11;100.00;94146.41;5104341;28;20211;-79
2021/12/04 01:41:46;;;;;;;8.20;6.07;;;;;;;3.15;100.00;94140.72;5099588;28;20192;-77
2021/12/04 01:44:15;;;;;;;8.43;5.57;;;;;;;3.07;100.00;94140.84;5103625;28;20208;-78
2021/12/04 01:46:44;;;;;;;7.37;5.43;;;;;;;3.02;100.00;94147.53;5102441;28;20308;-78
2021/12/04 01:49:12;;;;;;;8.13;5.47;;;;;;;3.09;100.00;94156.09;5096245;28;20612;-78
2021/12/04 01:51:41;;;;;;;9.43;6.57;;;;;;;3.08;100.00;94149.34;5101573;28;20210;-78
2021/12/04 01:54:10;;;;;;;13.93;7.50;;;;;;;3.14;100.00;94148.63;5099717;28;20253;-79
2021/12/04 01:56:40;;;;;;;13.57;8.30;;;;;;;3.23;100.00;94155.22;5100617;28;20204;-79
2021/12/04 01:59:10;;;;;;;12.73;7.90;;;;;;;3.28;100.00;94151.09;5099778;28;20212;-78
2021/12/04 02:01:39;;;;;;;11.80;6.70;;;;;;;3.29;100.00;94162.94;5099261;28;20292;-79
2021/12/04 02:04:07;;;;;;;8.83;6.13;;;;;;;3.24;100.00;94161.91;5105887;28;20235;-78
2021/12/04 02:06:38;;;;;;;8.03;5.47;;;;;;;3.23;100.00;94155.97;5102121;28;20223;-78
2021/12/04 02:09:06;;;;;;;7.30;5.57;;;;;;;3.14;100.00;94162.25;5098846;28;20200;-79
2021/12/04 02:11:35;;;;;;;10.73;5.80;;;;;;;3.09;100.00;94168.91;5104122;28;20207;-79
2021/12/04 02:14:03;;;;;;;7.63;5.47;;;;;;;2.96;100.00;94159.31;5094732;28;20201;-79
2021/12/04 02:16:32;;;;;;;8.07;5.67;;;;;;;2.84;100.00;94158.22;5097776;28;20576;-79
2021/12/04 02:19:03;;;;;;;8.13;6.00;;;;;;;2.87;100.00;94152.72;5105665;28;20323;-79
2021/12/04 02:21:33;;;;;;;8.17;5.77;;;;;;;2.90;100.00;94151.56;5099606;28;20208;-78
2021/12/04 02:24:02;;;;;;;8.67;6.23;;;;;;;2.90;100.00;94141.28;5098745;28;20723;-76
2021/12/04 02:26:29;;;;;;;8.90;6.13;;;;;;;2.98;100.00;94147.09;5101899;28;20227;-77
2021/12/04 02:28:58;;;;;;;8.17;5.57;;;;;;;3.01;100.00;94144.16;5100623;28;20643;-76
2021/12/04 02:31:28;;;;;;;8.03;5.80;;;;;;;2.94;100.00;94142.53;5095511;28;20207;-77
2021/12/04 02:33:57;;;;;;;8.93;5.93;;;;;;;3.03;100.00;94144.75;5102907;28;20260;-77
2021/12/04 02:36:25;;;;;;;10.23;6.60;;;;;;;2.86;100.00;94131.41;5099959;28;20596;-79
2021/12/04 02:38:58;;;;;;;9.73;6.50;;;;;;;2.80;100.00;94132.13;5094395;28;20318;-78
2021/12/04 02:41:27;;;;;;;11.23;7.10;;;;;;;2.84;100.00;94128.22;5104100;28;20667;-78
2021/12/04 02:43:55;;;;;;;10.37;7.07;;;;;;;2.88;100.00;94133.78;5107072;28;20208;-79
2021/12/04 02:46:23;;;;;;;11.03;7.63;;;;;;;2.75;100.00;94126.75;5106649;28;20281;-79
2021/12/04 02:48:51;;;;;;;10.53;7.13;;;;;;;2.85;100.00;94137.53;5108152;28;20613;-79
2021/12/04 02:51:20;;;;;;;9.70;6.30;;;;;;;3.01;100.00;94146.72;5102061;28;20211;-79
2021/12/04 02:53:49;;;;;;;9.60;6.50;;;;;;;2.97;100.00;94142.16;5100009;28;20214;-79
2021/12/04 02:56:19;;;;;;;9.67;6.60;;;;;;;2.90;100.00;94134.38;5110235;28;20674;-78
2021/12/04 02:58:51;;;;;;;9.33;6.60;;;;;;;2.85;100.00;94129.03;5101906;28;20207;-79
2021/12/04 03:01:18;;;;;;;8.87;6.17;;;;;;;2.95;100.00;94134.63;5105082;28;20204;-78
2021/12/04 03:03:47;;;;;;;13.03;7.00;;;;;;;2.92;100.00;94135.00;5096793;28;20283;-78
2021/12/04 03:06:16;;;;;;;10.70;6.80;;;;;;;2.98;100.00;94128.31;5105426;28;20200;-79
2021/12/04 03:08:46;;;;;;;9.40;6.70;;;;;;;2.85;100.00;94116.19;5103063;28;20642;-78
2021/12/04 03:11:16;;;;;;;10.43;6.80;;;;;;;2.80;100.00;94124.44;5110519;28;20195;-79
2021/12/04 03:13:46;;;;;;;10.40;6.83;;;;;;;2.82;100.00;94126.81;5108578;28;20639;-79
2021/12/04 03:16:15;;;;;;;11.27;7.47;;;;;;;2.88;100.00;94125.28;5119500;28;20210;-79
2021/12/04 03:18:43;;;;;;;10.70;7.13;;;;;;;2.85;100.00;94129.81;5108188;28;20210;-78
2021/12/04 03:21:10;;;;;;;11.80;7.60;;;;;;;2.76;100.00;94135.25;5108391;28;20232;-78
2021/12/04 03:23:52;;;;;;;10.13;7.43;;;;;;;2.70;100.00;94125.72;5100292;28;20206;-79
2021/12/04 03:26:20;;;;;;;10.23;6.70;;;;;;;2.63;100.00;94117.16;5104531;28;20243;-79
2021/12/04 03:28:50;;;;;;;12.00;7.70;;;;;;;2.56;100.00;94129.94;5098636;28;20666;-78
2021/12/04 03:31:23;;;;;;;10.03;7.23;;;;;;;2.53;100.00;94132.88;5110133;28;20252;-79
2021/12/04 03:42:07;;;;;;;13.03;8.50;;;;;;;2.52;100.00;94138.16;5099360;28;20192;-79
2021/12/04 03:44:38;;;;;;;13.00;9.27;;;;;;;2.58;100.00;94145.13;5107837;28;20285;-80
2021/12/04 03:47:07;;;;;;;12.63;8.50;;;;;;;2.49;100.00;94143.66;5102629;28;20214;-79
2021/12/04 03:49:35;;;;;;;12.73;8.00;;;;;;;2.40;100.00;94140.41;5096050;28;20207;-78
2021/12/04 03:52:03;;;;;;;13.53;8.00;;;;;;;2.39;100.00;94141.38;5101474;28;20205;-77
2021/12/04 03:54:31;;;;;;;12.70;8.10;;;;;;;2.39;100.00;94130.34;5094452;28;20304;-77
2021/12/04 03:57:04;;;;;;;13.17;8.53;;;;;;;2.36;100.00;94136.63;5099072;28;20199;-79
2021/12/04 03:59:34;;;;;;;12.10;8.50;;;;;;;2.32;100.00;94149.97;5108285;28;20584;-78
2021/12/04 04:02:06;;;;;;;12.90;8.67;;;;;;;2.40;100.00;94152.41;5103957;28;20208;-78
2021/12/04 04:04:34;;;;;;;12.03;8.50;;;;;;;2.40;100.00;94149.84;5104100;28;20213;-80
2021/12/04 04:07:02;;;;;;;12.90;9.03;;;;;;;2.27;100.00;94153.88;5108696;28;20234;-79
2021/12/04 04:09:30;;;;;;;13.57;8.83;;;;;;;2.30;100.00;94155.28;5100516;28;20207;-77
2021/12/04 04:12:01;;;;;;;13.67;8.77;;;;;;;2.31;100.00;94158.66;5098789;28;20220;-77
2021/12/04 04:14:30;;;;;;;12.83;8.67;;;;;;;2.28;100.00;94152.09;5107983;28;20224;-78
2021/12/04 04:16:59;;;;;;;12.97;8.60;;;;;;;2.36;100.00;94157.13;5103768;28;20266;-77
2021/12/04 04:19:29;;;;;;;13.10;8.57;;;;;;;2.40;100.00;94160.91;5097752;28;20235;-80
2021/12/04 04:21:58;;;;;;;11.83;8.30;;;;;;;2.50;100.00;94163.19;5099165;28;20202;-77
2021/12/04 04:24:28;;;;;;;19.63;11.17;;;;;;;2.47;100.00;94166.91;5101305;28;20285;-77
2021/12/04 04:26:56;;;;;;;17.67;9.70;;;;;;;2.52;100.00;94163.78;5097530;28;20600;-79
2021/12/04 04:29:25;;;;;;;16.47;9.30;;;;;;;2.46;100.00;94162.75;5105810;28;20214;-77
2021/12/04 04:31:55;;;;;;;18.30;9.43;;;;;;;2.49;100.00;94172.66;5097985;28;20207;-77
2021/12/04 04:34:27;;;;;;;11.43;7.37;;;;;;;2.51;100.00;94180.19;5099986;28;20227;-78
2021/12/04 04:37:08;;;;;;;14.07;8.33;;;;;;;2.52;100.00;94179.97;5104428;28;20299;-77
2021/12/04 04:59:06;;;;;;;13.90;8.53;;;;;;;2.65;100.00;94190.41;5104273;28;20262;-77
2021/12/04 05:12:57;;;;;;;15.23;9.40;;;;;;;2.90;100.00;94187.47;5015368;28;20214;-78
2021/12/04 05:15:36;;;;;;;14.23;9.07;;;;;;;2.86;100.00;94195.53;5062765;28;20294;-79
2021/12/04 05:18:13;;;;;;;15.87;9.83;;;;;;;2.94;100.00;94192.06;5106640;28;20591;-78
2021/12/04 05:20:41;;;;;;;17.27;10.07;;;;;;;3.05;100.00;94190.78;5106485;28;20260;-78
2021/12/04 05:23:10;;;;;;;15.97;10.53;;;;;;;3.06;100.00;94179.56;5098770;28;20555;-77
2021/12/04 05:25:41;;;;;;;16.77;11.07;;;;;;;3.08;100.00;94185.28;5105734;28;20202;-77
2021/12/04 05:28:11;;;;;;;17.87;11.10;;;;;;;3.07;100.00;94197.31;5102374;28;20225;-77
2021/12/04 05:30:43;;;;;;;17.83;10.30;;;;;;;2.95;100.00;94197.97;5100262;28;20209;-77
2021/12/04 05:33:10;;;;;;;14.47;9.67;;;;;;;2.80;100.00;94192.88;5103364;28;20249;-77
2021/12/04 05:35:38;;;;;;;13.23;8.70;;;;;;;2.71;100.00;94191.44;5105709;28;20223;-76
2021/12/04 05:38:07;;;;;;;16.13;9.07;;;;;;;2.69;100.00;94188.25;5103461;28;20230;-77
2021/12/04 05:40:35;;;;;;;14.23;9.00;;;;;;;2.60;100.00;94189.31;5103539;28;20197;-77
2021/12/04 05:43:06;;;;;;;13.03;8.53;;;;;;;2.57;100.00;94192.28;5105560;28;20225;-77
2021/12/04 05:45:38;;;;;;;12.30;8.30;;;;;;;2.59;100.00;94185.19;5105651;28;20210;-80
2021/12/04 05:48:11;;;;;;;14.90;8.07;;;;;;;2.49;100.00;94172.66;5106946;28;20216;-79
2021/12/04 05:53:41;;;;;;;14.23;9.30;;;;;;;2.45;100.00;94174.00;5080980;28;20436;-78
2021/12/04 05:56:09;;;;;;;15.50;10.00;;;;;;;2.53;100.00;94188.47;5103522;28;20199;-78
2021/12/04 05:58:40;;;;;;;15.13;10.37;;;;;;;2.56;100.00;94190.69;5099015;28;20772;-78
2021/12/04 06:01:10;;;;;;;18.63;11.73;;;;;;;2.57;100.00;94194.84;5101192;28;20256;-79
2021/12/04 06:03:38;;;;;;;15.13;10.27;;;;;;;2.53;100.00;94196.16;5095535;28;20214;-79
2021/12/04 06:06:06;;;;;;;18.50;10.70;;;;;;;2.54;100.00;94200.31;5098916;28;20200;-78
2021/12/04 06:08:35;;;;;;;16.67;10.43;;;;;;;2.52;100.00;94197.94;5103764;28;20225;-79
2021/12/04 06:11:04;;;;;;;16.77;10.47;;;;;;;2.50;100.00;94202.44;5102151;28;20232;-78
2021/12/04 06:13:32;;;;;;;17.10;10.77;;;;;;;2.49;100.00;94205.19;5099551;28;20196;-79
2021/12/04 06:16:01;;;;;;;18.53;11.40;;;;;;;2.54;100.00;94198.53;5100040;28;20291;-79
2021/12/04 06:18:29;;;;;;;19.03;11.67;;;;;;;2.63;100.00;94209.47;5105348;28;20256;-78
2021/12/04 06:23:43;;;;;;;21.73;13.37;;;;;;;2.58;100.00;94202.34;5098294;28;20211;-76
2021/12/04 06:26:11;;;;;;;21.73;13.03;;;;;;;2.52;100.00;94204.81;5110012;28;20212;-77
2021/12/04 06:28:41;;;;;;;17.90;11.07;;;;;;;2.67;100.00;94203.81;5103997;28;20226;-79
2021/12/04 06:31:11;;;;;;;22.03;12.23;;;;;;;2.65;100.00;94194.72;5100092;28;20202;-70
2021/12/04 06:33:43;;;;;;;24.53;13.37;;;;;;;2.76;100.00;94210.44;5102306;28;20280;-71
2021/12/04 06:36:12;;;;;;;23.43;12.60;;;;;;;2.85;100.00;94214.50;5096010;28;20598;-71
2021/12/04 06:38:41;;;;;;;22.67;12.57;;;;;;;2.79;100.00;94209.28;5106947;28;20226;-71
2021/12/04 06:41:09;;;;;;;22.70;13.03;;;;;;;2.67;100.00;94211.53;5104883;28;20194;-72
2021/12/04 06:43:44;;;;;;;22.40;12.43;;;;;;;2.80;100.00;94221.91;5102111;28;20200;-71
2021/12/04 06:46:13;;;;;;;23.43;13.73;;;;;;;2.75;100.00;94224.22;5105125;28;20199;-72
2021/12/04 06:48:44;;;;;;;23.20;13.23;;;;;;;2.72;100.00;94227.16;5099284;28;20315;-76
2021/12/04 06:51:22;;;;;;;29.83;15.17;;;;;;;2.79;100.00;94222.91;5108448;28;20203;-84
2021/12/04 06:53:55;;;;;;;23.07;13.50;;;;;;;2.68;100.00;94230.28;5107080;28;20707;-83
2021/12/04 06:56:30;;;;;;;22.60;13.43;;;;;;;2.74;100.00;94232.88;5106768;28;20199;-82
2021/12/04 06:58:57;;;;;;;24.90;14.17;;;;;;;2.70;100.00;94236.00;5100396;28;20191;-83
2021/12/04 07:01:27;;;;;;;20.37;12.50;;;;;;;2.74;100.00;94238.03;5104431;28;20294;-85
2021/12/04 07:03:54;;;;;;;22.60;13.30;;;;;;;2.79;100.00;94222.09;5104922;28;20196;-82
2021/12/04 07:06:22;;;;;;;27.87;14.40;;;;;;;2.93;100.00;94238.44;5099814;28;20196;-86
2021/12/04 07:08:49;;;;;;;23.67;14.07;;;;;;;2.93;100.00;94239.22;5103600;28;20768;-81
2021/12/04 07:11:33;;;;;;;22.77;14.03;;;;;;;2.74;100.00;94232.13;5102725;28;20288;-78
2021/12/04 07:14:01;;;;;;;26.40;14.53;;;;;;;2.94;100.00;94247.72;5108872;28;20215;-86
2021/12/04 07:16:30;;;;;;;26.70;15.67;;;;;;;2.88;100.00;94248.44;5108807;28;20212;-85
2021/12/04 07:18:58;;;;;;;27.00;15.90;;;;;;;2.79;100.00;94232.38;5096973;28;20207;-83
2021/12/04 07:21:25;;;;;;;25.33;15.40;;;;;;;2.74;100.00;94250.84;5102928;28;20685;-83
2021/12/04 07:23:53;;;;;;;25.20;14.27;;;;;;;2.75;100.00;94247.31;5101321;28;20239;-84
2021/12/04 07:26:21;;;;;;;24.70;14.63;;;;;;;2.79;100.00;94246.00;5097642;28;20265;-85
2021/12/04 07:28:49;;;;;;;25.10;13.73;;;;;;;2.75;100.00;94246.53;5089050;28;21405;-84
2021/12/04 07:31:16;;;;;;;22.53;14.03;;;;;;;2.82;100.00;94235.38;5094180;28;20207;-85
2021/12/04 07:33:45;;;;;;;25.63;15.33;;;;;;;3.01;100.00;94238.31;5105400;28;20234;-86
2021/12/04 07:36:13;;;;;;;27.70;14.53;;;;;;;3.08;100.00;94241.75;5102911;28;20626;-88
2021/12/04 07:38:41;;;;;;;24.30;14.40;;;;;;;3.24;100.00;94232.03;5107408;28;20318;-81
2021/12/04 07:41:10;;;;;;;24.17;13.73;;;;;;;3.29;100.00;94219.44;5099705;28;20266;-86
2021/12/04 07:43:37;;;;;;;26.10;15.03;;;;;;;3.47;100.00;94228.47;5107379;28;20254;-86
2021/12/04 07:46:05;;;;;;;29.07;16.43;;;;;;;3.42;100.00;94201.59;5108178;28;20192;-87
2021/12/04 07:48:33;;;;;;;24.67;15.63;;;;;;;3.67;100.00;94216.56;5102658;28;20224;-88
2021/12/04 07:51:03;;;;;;;29.33;17.70;;;;;;;3.78;100.00;94201.44;5110255;28;20287;-85
2021/12/04 07:53:33;;;;;;;26.60;16.73;;;;;;;3.86;100.00;94198.75;5096483;28;20266;-83
2021/12/04 07:56:01;;;;;;;23.93;14.93;;;;;;;3.96;100.00;94195.81;5106678;28;20351;-85
2021/12/04 07:58:31;;;;;;;23.53;14.10;;;;;;;4.11;100.00;94198.28;5099019;28;20261;-82
2021/12/04 08:00:59;;;;;;;25.67;15.60;;;;;;;4.12;100.00;94197.31;5101371;28;20203;-82
2021/12/04 08:03:27;;;;;;;23.07;14.17;;;;;;;4.15;100.00;94189.22;5103163;28;20232;-83
2021/12/04 08:05:56;;;;;;;24.37;14.47;;;;;;;4.31;100.00;94187.13;5102607;28;20294;-80
2021/12/04 08:08:26;;;;;;;22.13;13.30;;;;;;;4.34;100.00;94186.72;5099938;27;20219;-80
2021/12/04 08:10:54;;;;;;;14.80;9.90;;;;;;;4.23;100.00;94181.34;5103170;28;20207;-85
2021/12/04 08:13:22;;;;;;;15.10;9.27;;;;;;;4.34;100.00;94170.50;5104901;28;20198;-82
2021/12/04 08:15:54;;;;;;;18.87;11.47;;;;;;;4.38;100.00;94176.88;5099831;28;20201;-82
2021/12/04 08:18:23;;;;;;;19.47;11.23;;;;;;;4.47;100.00;94173.91;5100995;28;20211;-82
2021/12/04 08:20:52;;;;;;;16.43;10.33;;;;;;;4.45;100.00;94185.38;5100683;28;20682;-82
2021/12/04 08:23:23;;;;;;;18.40;11.60;;;;;;;4.44;100.00;94194.88;5100561;28;20548;-82
2021/12/04 08:25:53;;;;;;;17.87;11.77;;;;;;;4.51;100.00;94206.00;5099206;28;20283;-84
2021/12/04 08:28:21;;;;;;;24.17;15.07;;;;;;;4.42;100.00;94202.00;5098007;28;20277;-79
2021/12/04 08:30:49;;;;;;;21.17;12.30;;;;;;;4.34;100.00;94191.06;5098541;28;20287;-76
2021/12/04 08:33:18;;;;;;;22.47;14.33;;;;;;;4.36;100.00;94195.03;5102842;28;20296;-79
2021/12/04 08:35:47;;;;;;;20.33;12.50;;;;;;;4.41;100.00;94203.00;5102022;28;20574;-86
2021/12/04 08:38:16;;;;;;;19.73;12.33;;;;;;;4.44;100.00;94199.25;5108891;28;20659;-86
2021/12/04 08:40:45;;;;;;;18.33;11.67;;;;;;;4.54;100.00;94197.09;5101437;28;20200;-88
2021/12/04 08:43:15;;;;;;;16.43;10.53;;;;;;;4.64;100.00;94202.69;5099370;28;20200;-88
2021/12/04 08:45:44;;;;;;;19.50;11.13;;;;;;;4.73;100.00;94187.88;5103246;28;20208;-90
2021/12/04 08:48:14;;;;;;;16.77;10.57;;;;;;;4.77;100.00;94187.28;5120533;28;20234;-80
2021/12/04 08:50:43;;;;;;;18.90;11.63;;;;;;;4.73;100.00;94182.72;5110663;28;20200;-87
2021/12/04 08:53:11;;;;;;;22.33;12.80;;;;;;;4.77;100.00;94171.03;5109035;28;20204;-86
2021/12/04 08:55:43;;;;;;;23.70;14.60;;;;;;;4.75;100.00;94168.69;5107107;28;20200;-84
2021/12/04 08:58:12;;;;;;;21.23;13.97;;;;;;;4.78;100.00;94170.06;5097088;28;20575;-84
2021/12/04 09:00:49;;;;;;;15.10;9.93;;;;;;;4.83;100.00;94165.91;5101288;28;20195;-85
2021/12/04 09:03:22;;;;;;;15.87;10.30;;;;;;;4.89;100.00;94182.38;5094065;28;20261;-83
2021/12/04 09:05:52;;;;;;;15.73;10.67;;;;;;;4.75;100.00;94175.59;5105850;28;20210;-84
2021/12/04 09:08:27;;;;;;;18.77;11.77;;;;;;;4.63;100.00;94183.09;5103861;28;20228;-84
2021/12/04 09:10:57;;;;;;;21.63;13.47;;;;;;;4.63;100.00;94179.72;5108123;28;20196;-84
2021/12/04 09:13:28;;;;;;;23.20;14.10;;;;;;;4.75;100.00;94180.75;5109107;28;20207;-84
2021/12/04 09:15:59;;;;;;;22.37;13.87;;;;;;;4.83;100.00;94175.41;5118549;28;20203;-85
2021/12/04 09:18:28;;;;;;;30.27;16.17;;;;;;;4.70;100.00;94176.19;5110266;28;20196;-84
2021/12/04 09:20:57;;;;;;;19.70;11.83;;;;;;;4.78;100.00;94186.31;5102333;28;20272;-84
2021/12/04 09:23:30;;;;;;;17.03;10.17;;;;;;;4.84;100.00;94180.38;5097985;28;20210;-85
2021/12/04 09:26:01;;;;;;;16.67;10.90;;;;;;;4.81;100.00;94182.53;5096094;28;20287;-84
2021/12/04 09:28:40;;;;;;;45.83;30.73;;;;;;;4.84;100.00;94177.81;5096754;28;20231;-86
2021/12/04 09:31:24;;;;;;;47.97;31.00;;;;;;;4.83;100.00;94181.34;5099796;28;20214;-85
2021/12/04 09:34:14;;;;;;;21.80;13.90;;;;;;;4.91;100.00;94188.09;5106522;28;20239;-84
2021/12/04 09:36:57;;;;;;;16.80;10.63;;;;;;;4.96;100.00;94178.81;5105411;28;20211;-84
2021/12/04 10:01:48;;;;;;;18.63;10.77;;;;;;;5.32;100.00;94186.19;5112764;28;20258;-85
2021/12/04 10:21:35;;;;;;;19.30;10.97;;;;;;;5.54;100.00;94161.81;5105150;28;20684;-85
2021/12/04 10:32:28;;;;;;;14.13;8.77;;;;;;;5.84;100.00;94143.34;5108895;28;20685;-84
2021/12/04 10:34:59;;;;;;;14.10;9.57;;;;;;;5.91;100.00;94139.00;5110554;28;20260;-83
2021/12/04 10:37:31;;;;;;;12.40;8.57;;;;;;;5.95;100.00;94140.97;5107420;28;20208;-83
2021/12/04 10:40:03;;;;;;;14.77;9.60;;;;;;;5.92;100.00;94130.25;5105034;27;20198;-85
2021/12/04 10:42:42;;;;;;;14.50;9.20;;;;;;;6.07;100.00;94139.34;5102689;28;20198;-84
2021/12/04 10:45:10;;;;;;;15.07;9.40;;;;;;;5.93;100.00;94142.16;5104732;28;20333;-84
2021/12/04 10:47:38;;;;;;;16.27;9.83;;;;;;;5.97;100.00;94136.41;5101216;28;20271;-84
2021/12/04 10:50:20;;;;;;;13.23;9.20;;;;;;;5.96;100.00;94141.75;5107153;28;20248;-84
2021/12/04 10:52:57;;;;;;;14.33;9.27;;;;;;;5.82;100.00;94137.59;5104383;28;20199;-83
2021/12/04 10:55:32;;;;;;;14.77;9.40;;;;;;;5.98;100.00;94144.94;5110730;28;20649;-84
2021/12/04 11:01:03;;;;;;;17.67;10.37;;;;;;;6.10;100.00;94141.53;5108563;28;20244;-85
2021/12/04 11:03:38;;;;;;;19.30;11.57;;;;;;;6.14;100.00;94141.91;5104786;28;20254;-84
2021/12/04 11:23:58;;;;;;;12.33;8.53;;;;;;;6.12;100.00;94142.09;5101138;28;20205;-84
2021/12/04 11:26:50;;;;;;;11.80;7.87;;;;;;;6.10;100.00;94143.31;5106954;28;20282;-84
2021/12/04 11:35:34;;;;;;;13.10;8.30;;;;;;;5.75;100.00;94132.44;5108548;28;20267;-84
2021/12/04 11:41:09;;;;;;;13.27;8.23;;;;;;;6.02;100.00;94133.22;5108174;28;20232;-84
2021/12/04 11:43:54;;;;;;;12.40;7.67;;;;;;;5.93;100.00;94130.06;5099809;28;20210;-85
2021/12/04 11:46:40;;;;;;;14.30;7.80;;;;;;;6.05;100.00;94133.63;5103324;28;20204;-85
2021/12/04 11:49:14;;;;;;;16.80;9.33;;;;;;;6.11;100.00;94129.44;5098901;28;20225;-84
2021/12/04 11:51:57;;;;;;;19.00;12.13;;;;;;;6.10;100.00;94125.25;5110185;28;20305;-84
2021/12/04 11:54:26;;;;;;;24.50;14.40;;;;;;;5.86;100.00;94120.78;5110982;28;20193;-81
2021/12/04 11:57:09;;;;;;;22.50;14.63;;;;;;;5.88;100.00;94134.25;5108377;28;20591;-80
2021/12/04 11:59:43;;;;;;;19.60;12.30;;;;;;;5.90;100.00;94111.63;5103397;28;20201;-81
2021/12/04 12:02:18;;;;;;;17.97;10.23;;;;;;;6.01;100.00;94105.84;5099130;28;20200;-81
2021/12/04 12:04:52;;;;;;;17.17;10.10;;;;;;;6.20;100.00;94112.72;5099882;28;20202;-80
2021/12/04 12:07:22;;;;;;;14.90;9.63;;;;;;;6.19;100.00;94114.53;5108466;28;20216;-81
2021/12/04 12:10:05;;;;;;;14.23;9.33;;;;;;;6.23;100.00;94114.91;5108361;28;20604;-82
2021/12/04 12:12:36;;;;;;;14.53;8.43;;;;;;;6.21;100.00;94114.31;5108044;28;20299;-81
2021/12/04 12:15:19;;;;;;;14.87;8.30;;;;;;;6.37;100.00;94125.97;5105648;28;20253;-80
2021/12/04 12:17:47;;;;;;;14.93;8.30;;;;;;;6.43;100.00;94125.13;5108249;28;20262;-80
2021/12/04 12:20:29;;;;;;;11.20;7.87;;;;;;;6.26;100.00;94117.84;5109174;28;20196;-80
2021/12/04 12:23:05;;;;;;;12.00;8.07;;;;;;;6.28;100.00;94117.66;5101466;28;20184;-81
2021/12/04 12:25:50;;;;;;;10.57;7.63;;;;;;;6.30;100.00;94115.66;5099183;28;20211;-81
2021/12/04 12:34:03;;;;;;;14.30;9.23;;;;;;;6.32;100.00;94134.28;5108500;28;20686;-79
2021/12/04 12:36:32;;;;;;;17.57;10.63;;;;;;;6.28;100.00;94109.91;5102931;28;20198;-80
2021/12/04 12:39:07;;;;;;;24.17;12.57;;;;;;;6.43;100.00;94130.31;5102052;28;20846;-79
2021/12/04 12:41:42;;;;;;;25.27;15.43;;;;;;;6.47;100.00;94137.41;5100781;28;20650;-79
2021/12/04 12:44:12;;;;;;;17.93;10.63;;;;;;;6.56;100.00;94133.59;5101336;28;20207;-80
2021/12/04 12:46:45;;;;;;;14.20;9.57;;;;;;;6.61;100.00;94122.69;5108490;28;20234;-80
2021/12/04 12:49:22;;;;;;;16.30;10.53;;;;;;;6.66;100.00;94131.38;5093509;28;20219;-81
2021/12/04 12:52:02;;;;;;;15.93;10.07;;;;;;;6.67;100.00;94124.41;5105167;28;20202;-80
2021/12/04 12:54:34;;;;;;;17.23;9.53;;;;;;;6.70;100.00;94127.38;5105856;28;20199;-80
2021/12/04 12:57:06;;;;;;;16.13;10.33;;;;;;;6.60;100.00;94134.78;5095881;28;20282;-80
2021/12/04 13:00:00;;;;;;;21.20;13.10;;;;;;;6.58;100.00;94130.84;5104051;28;20214;-81
2021/12/04 13:13:55;;;;;;;16.67;10.17;;;;;;;6.59;100.00;94133.19;5102662;28;20590;-84
2021/12/04 13:16:29;;;;;;;17.50;10.13;;;;;;;6.63;100.00;94146.50;5098084;28;20210;-84
2021/12/04 13:19:04;;;;;;;16.90;9.80;;;;;;;6.55;100.00;94144.91;5103443;28;20205;-85
2021/12/04 13:21:36;;;;;;;16.87;10.47;;;;;;;6.37;100.00;94137.06;5104547;28;20198;-84
2021/12/04 13:24:10;;;;;;;16.27;11.00;;;;;;;6.47;100.00;94141.78;5105276;28;20742;-84
2021/12/04 13:26:41;;;;;;;19.90;11.40;;;;;;;6.52;100.00;94142.75;5102579;28;20264;-84
2021/12/04 13:29:12;;;;;;;19.17;11.47;;;;;;;6.51;100.00;94140.38;5107909;28;20222;-84
2021/12/04 13:31:40;;;;;;;17.00;10.60;;;;;;;6.54;100.00;94140.78;5101106;28;20199;-76
2021/12/04 13:34:12;;;;;;;18.17;10.77;;;;;;;6.60;100.00;94136.56;5097888;28;20615;-83
2021/12/04 13:36:45;;;;;;;21.90;11.00;;;;;;;6.64;100.00;94117.88;5101965;28;20199;-84
2021/12/04 13:39:17;;;;;;;19.43;10.70;;;;;;;6.74;100.00;94128.56;5098152;28;20199;-83
2021/12/04 13:41:47;;;;;;;17.00;10.67;;;;;;;6.75;100.00;94143.03;5099162;28;20253;-80
2021/12/04 13:44:17;;;;;;;17.20;10.87;;;;;;;6.66;100.00;94151.25;5102011;28;20206;-78
2021/12/04 13:46:48;;;;;;;15.93;10.70;;;;;;;6.63;100.00;94138.75;5096811;28;20666;-82
2021/12/04 13:49:22;;;;;;;18.17;11.17;;;;;;;6.57;100.00;94140.38;5101040;28;20222;-79
2021/12/04 13:51:54;;;;;;;17.23;10.07;;;;;;;6.52;100.00;94129.06;5097722;28;20214;-81
2021/12/04 13:54:26;;;;;;;17.03;10.83;;;;;;;6.62;100.00;94137.16;5101240;28;20679;-83
2021/12/04 13:56:55;;;;;;;14.73;10.17;;;;;;;6.65;100.00;94131.59;5098086;28;20474;-82
2021/12/04 13:59:24;;;;;;;18.37;10.07;;;;;;;6.64;100.00;94132.56;5101860;28;20214;-82
2021/12/04 14:01:52;;;;;;;17.20;10.43;;;;;;;6.59;100.00;94132.41;5100159;28;20969;-81
2021/12/04 14:04:22;;;;;;;14.73;10.27;;;;;;;6.63;100.00;94128.41;5097802;28;20693;-82
2021/12/04 14:06:57;;;;;;;20.80;11.00;;;;;;;6.65;100.00;94119.47;5088593;28;20307;-82
2021/12/04 14:09:31;;;;;;;17.53;10.80;;;;;;;6.69;100.00;94114.69;5104930;28;20756;-83
2021/12/04 14:11:59;;;;;;;19.47;11.53;;;;;;;6.78;100.00;94110.88;5100060;28;20191;-84